Airfield :







YOU CAN JOIN US ON...

 
LOGIN :

Register | Disclaimer

   EN    FR    IT 

 









Legend :    VFR   Marginal VFR   IFR   Intensive IFR   Very Intensive IFR
Visi :
Ceiling :
>= 8 km
>= 3000ft
5 to 8 km
1000 to 3000 ft
1500m to 5 km
500 to 1000 ft
800 to 1500m
200 to 500 ft
< 800m
< 200 ft
Symbols :   Thunderstorms  Fog  Heavy snow  Heavy precipitations  Wind > 20 kt






- Airport Elevation : 199 ft
- IATA code : YRQ


CYRQ - Trois-Rivières

CURRENT METAR :
  • 031600Z AUTO 21002KT 9SM OVC017 M01/M02 A2991 RMK SLP131

EXPIRED METARs :
  • 031524Z AUTO 22003KT 9SM BKN017 BKN028 OVC039 M01/M03 A2992 RMK SLP135
  • 031512Z AUTO 22003KT 9SM SCT015 OVC039 M01/M03 A2992 RMK SLP137
  • 031500Z AUTO 24003KT 220V280 9SM BKN015 OVC039 M01/M03 A2992 RMK SLP137
  • 031449Z AUTO 25003KT 9SM OVC013 M01/M03 A2993 RMK SLP139
  • 031429Z AUTO 23005KT 9SM -SN BKN013 BKN019 OVC040 M01/M03 A2993 RMK SLP138
  • 031400Z AUTO 24007KT 9SM OVC040 M01/M03 A2993 RMK SLP140

TAF AMD TAF CYRQ
Valid from the 03 at 14:00 until the 04 at 02:00 UTC


031435Z 0314/0402 22012KT 5SM -SN OVC012
TEMPO 0314/0402 P6SM NSW OVC025 RMK FCST BASED ON AUTO OBS. NXT FCST BY 032000Z
CZUL FIR / North America



MET'MAP, your aeronautical weather chart ! - Copyright ORBIFLY December 2007 - Disclaimer

ORBIFLY MET'MAP TEAM :

Programming & Development : Alexandra Zaïnal
Concept & original design : Baudouin d'Aumeries
Assistance for programming : Marc-Olivier Méhu
Technical & hardware support : Manuel Goepfert

Contact : metmap@orbifly.com




SOURCES & CREDITS :

   NOAA